sensor_id;sensor_type;location;lat;lon;timestamp;temperature;humidity
21544;DHT22;10933;50.754;11.508;2023-10-19T00:00:41;9.50;99.90
21544;DHT22;10933;50.754;11.508;2023-10-19T00:03:11;9.00;99.90
21544;DHT22;10933;50.754;11.508;2023-10-19T00:05:38;7.70;99.90
21544;DHT22;10933;50.754;11.508;2023-10-19T00:08:05;10.00;99.90
21544;DHT22;10933;50.754;11.508;2023-10-19T00:10:44;7.70;99.90
21544;DHT22;10933;50.754;11.508;2023-10-19T00:13:21;11.20;99.90
21544;DHT22;10933;50.754;11.508;2023-10-19T00:15:47;10.60;99.90
21544;DHT22;10933;50.754;11.508;2023-10-19T00:18:20;7.80;99.90
21544;DHT22;10933;50.754;11.508;2023-10-19T00:20:49;7.80;99.90
21544;DHT22;10933;50.754;11.508;2023-10-19T00:23:22;7.70;99.90
21544;DHT22;10933;50.754;11.508;2023-10-19T00:25:55;8.10;99.90
21544;DHT22;10933;50.754;11.508;2023-10-19T00:28:22;7.90;99.90
21544;DHT22;10933;50.754;11.508;2023-10-19T00:30:48;8.00;99.90
21544;DHT22;10933;50.754;11.508;2023-10-19T00:33:19;8.00;99.90
21544;DHT22;10933;50.754;11.508;2023-10-19T00:35:47;7.80;99.90
21544;DHT22;10933;50.754;11.508;2023-10-19T00:38:27;7.90;99.90
21544;DHT22;10933;50.754;11.508;2023-10-19T00:40:56;8.00;99.90
21544;DHT22;10933;50.754;11.508;2023-10-19T00:43:32;7.90;99.90
21544;DHT22;10933;50.754;11.508;2023-10-19T00:46:06;7.90;99.90
21544;DHT22;10933;50.754;11.508;2023-10-19T00:51:13;9.60;99.90
21544;DHT22;10933;50.754;11.508;2023-10-19T00:54:07;10.60;99.90
21544;DHT22;10933;50.754;11.508;2023-10-19T00:56:42;8.00;99.90
21544;DHT22;10933;50.754;11.508;2023-10-19T00:59:17;7.90;99.90
21544;DHT22;10933;50.754;11.508;2023-10-19T01:01:52;8.00;99.90
21544;DHT22;10933;50.754;11.508;2023-10-19T01:04:24;8.00;99.90
21544;DHT22;10933;50.754;11.508;2023-10-19T01:06:57;10.80;99.90
21544;DHT22;10933;50.754;11.508;2023-10-19T01:09:46;8.10;99.90
21544;DHT22;10933;50.754;11.508;2023-10-19T01:12:13;8.10;99.90
21544;DHT22;10933;50.754;11.508;2023-10-19T01:15:28;8.10;99.90
21544;DHT22;10933;50.754;11.508;2023-10-19T01:17:55;7.90;99.90
21544;DHT22;10933;50.754;11.508;2023-10-19T01:20:32;10.50;99.90
21544;DHT22;10933;50.754;11.508;2023-10-19T01:23:09;8.00;99.90
21544;DHT22;10933;50.754;11.508;2023-10-19T01:28:26;8.00;99.90
21544;DHT22;10933;50.754;11.508;2023-10-19T01:31:19;10.80;99.90
21544;DHT22;10933;50.754;11.508;2023-10-19T01:33:56;7.90;99.90
21544;DHT22;10933;50.754;11.508;2023-10-19T01:36:24;8.00;99.90
21544;DHT22;10933;50.754;11.508;2023-10-19T01:38:52;11.30;99.90
21544;DHT22;10933;50.754;11.508;2023-10-19T01:41:26;8.00;99.90
21544;DHT22;10933;50.754;11.508;2023-10-19T01:43:53;10.60;99.90
21544;DHT22;10933;50.754;11.508;2023-10-19T01:46:21;7.90;99.90
21544;DHT22;10933;50.754;11.508;2023-10-19T01:48:53;11.10;99.90
21544;DHT22;10933;50.754;11.508;2023-10-19T01:51:21;8.00;99.90
21544;DHT22;10933;50.754;11.508;2023-10-19T01:53:52;8.50;99.90
21544;DHT22;10933;50.754;11.508;2023-10-19T01:56:20;8.00;99.90
21544;DHT22;10933;50.754;11.508;2023-10-19T01:58:48;7.90;99.90
21544;DHT22;10933;50.754;11.508;2023-10-19T02:01:16;8.00;99.90
21544;DHT22;10933;50.754;11.508;2023-10-19T02:04:05;8.00;99.90
21544;DHT22;10933;50.754;11.508;2023-10-19T02:06:33;8.10;99.90
21544;DHT22;10933;50.754;11.508;2023-10-19T02:11:48;8.10;99.90
21544;DHT22;10933;50.754;11.508;2023-10-19T02:14:16;8.10;99.90
21544;DHT22;10933;50.754;11.508;2023-10-19T02:16:46;8.20;99.90
21544;DHT22;10933;50.754;11.508;2023-10-19T02:19:13;8.10;99.90
21544;DHT22;10933;50.754;11.508;2023-10-19T02:21:39;8.20;99.90
21544;DHT22;10933;50.754;11.508;2023-10-19T02:24:09;7.10;99.90
21544;DHT22;10933;50.754;11.508;2023-10-19T02:26:43;8.10;99.90
21544;DHT22;10933;50.754;11.508;2023-10-19T02:29:12;8.10;99.90
21544;DHT22;10933;50.754;11.508;2023-10-19T02:31:42;9.10;99.90
21544;DHT22;10933;50.754;11.508;2023-10-19T02:34:10;8.10;99.90
21544;DHT22;10933;50.754;11.508;2023-10-19T02:36:38;8.20;99.90
21544;DHT22;10933;50.754;11.508;2023-10-19T02:39:07;8.10;99.90
21544;DHT22;10933;50.754;11.508;2023-10-19T02:41:40;8.20;99.90
21544;DHT22;10933;50.754;11.508;2023-10-19T02:44:15;8.20;99.90
21544;DHT22;10933;50.754;11.508;2023-10-19T02:46:43;8.20;99.90
21544;DHT22;10933;50.754;11.508;2023-10-19T02:49:14;8.20;99.90
21544;DHT22;10933;50.754;11.508;2023-10-19T02:51:44;8.30;99.90
21544;DHT22;10933;50.754;11.508;2023-10-19T02:54:12;8.20;99.90
21544;DHT22;10933;50.754;11.508;2023-10-19T02:56:53;8.20;99.90
21544;DHT22;10933;50.754;11.508;2023-10-19T02:59:23;8.30;99.90
21544;DHT22;10933;50.754;11.508;2023-10-19T03:01:54;8.40;99.90
21544;DHT22;10933;50.754;11.508;2023-10-19T03:04:36;8.20;99.90
21544;DHT22;10933;50.754;11.508;2023-10-19T03:07:03;11.40;99.90
21544;DHT22;10933;50.754;11.508;2023-10-19T03:09:29;8.20;99.90
21544;DHT22;10933;50.754;11.508;2023-10-19T03:11:57;8.70;99.90
21544;DHT22;10933;50.754;11.508;2023-10-19T03:14:30;11.40;99.90
21544;DHT22;10933;50.754;11.508;2023-10-19T03:16:57;11.90;99.90
21544;DHT22;10933;50.754;11.508;2023-10-19T03:19:26;11.40;99.90
21544;DHT22;10933;50.754;11.508;2023-10-19T03:21:55;8.30;99.90
21544;DHT22;10933;50.754;11.508;2023-10-19T03:24:21;8.30;99.90
21544;DHT22;10933;50.754;11.508;2023-10-19T03:27:14;10.90;99.90
21544;DHT22;10933;50.754;11.508;2023-10-19T03:29:48;9.80;99.90
21544;DHT22;10933;50.754;11.508;2023-10-19T03:32:24;8.40;99.90
21544;DHT22;10933;50.754;11.508;2023-10-19T03:34:58;8.80;99.90
21544;DHT22;10933;50.754;11.508;2023-10-19T03:37:26;8.30;99.90
21544;DHT22;10933;50.754;11.508;2023-10-19T03:39:55;8.40;99.90
21544;DHT22;10933;50.754;11.508;2023-10-19T03:42:24;11.70;99.90
21544;DHT22;10933;50.754;11.508;2023-10-19T03:44:57;11.50;99.90
21544;DHT22;10933;50.754;11.508;2023-10-19T03:47:23;9.40;99.90
21544;DHT22;10933;50.754;11.508;2023-10-19T03:50:02;8.90;99.90
21544;DHT22;10933;50.754;11.508;2023-10-19T03:52:40;8.40;99.90
21544;DHT22;10933;50.754;11.508;2023-10-19T03:55:06;8.50;99.90
21544;DHT22;10933;50.754;11.508;2023-10-19T03:57:48;8.40;99.90
21544;DHT22;10933;50.754;11.508;2023-10-19T04:00:20;8.40;99.90
21544;DHT22;10933;50.754;11.508;2023-10-19T04:02:51;8.50;99.90
21544;DHT22;10933;50.754;11.508;2023-10-19T04:05:18;9.60;99.90
21544;DHT22;10933;50.754;11.508;2023-10-19T04:07:52;8.50;99.90
21544;DHT22;10933;50.754;11.508;2023-10-19T04:10:22;8.40;99.90
21544;DHT22;10933;50.754;11.508;2023-10-19T04:12:57;8.40;99.90
21544;DHT22;10933;50.754;11.508;2023-10-19T04:15:26;8.40;99.90
21544;DHT22;10933;50.754;11.508;2023-10-19T04:17:54;8.40;99.90
21544;DHT22;10933;50.754;11.508;2023-10-19T04:20:23;8.40;99.90
21544;DHT22;10933;50.754;11.508;2023-10-19T04:23:08;8.50;99.90
21544;DHT22;10933;50.754;11.508;2023-10-19T04:25:37;8.50;99.90
21544;DHT22;10933;50.754;11.508;2023-10-19T04:28:03;8.50;99.90
21544;DHT22;10933;50.754;11.508;2023-10-19T04:30:30;8.60;99.90
21544;DHT22;10933;50.754;11.508;2023-10-19T04:32:58;9.80;99.90
21544;DHT22;10933;50.754;11.508;2023-10-19T04:35:27;11.80;99.90
21544;DHT22;10933;50.754;11.508;2023-10-19T04:37:59;8.40;99.90
21544;DHT22;10933;50.754;11.508;2023-10-19T04:40:26;8.50;99.90
21544;DHT22;10933;50.754;11.508;2023-10-19T04:42:53;8.60;99.90
21544;DHT22;10933;50.754;11.508;2023-10-19T04:45:20;11.50;99.90
21544;DHT22;10933;50.754;11.508;2023-10-19T04:47:45;8.60;99.90
21544;DHT22;10933;50.754;11.508;2023-10-19T04:50:15;8.70;99.90
21544;DHT22;10933;50.754;11.508;2023-10-19T04:52:41;8.70;99.90
21544;DHT22;10933;50.754;11.508;2023-10-19T04:55:07;8.70;99.90
21544;DHT22;10933;50.754;11.508;2023-10-19T04:57:33;8.60;99.90
21544;DHT22;10933;50.754;11.508;2023-10-19T04:59:59;8.60;99.90
21544;DHT22;10933;50.754;11.508;2023-10-19T05:02:25;8.70;99.90
21544;DHT22;10933;50.754;11.508;2023-10-19T05:04:51;8.90;99.90
21544;DHT22;10933;50.754;11.508;2023-10-19T05:07:16;11.20;99.90
21544;DHT22;10933;50.754;11.508;2023-10-19T05:09:43;8.90;99.90
21544;DHT22;10933;50.754;11.508;2023-10-19T05:12:10;8.90;99.90
21544;DHT22;10933;50.754;11.508;2023-10-19T05:14:37;8.90;99.90
21544;DHT22;10933;50.754;11.508;2023-10-19T05:17:04;7.70;99.90
21544;DHT22;10933;50.754;11.508;2023-10-19T05:19:34;8.90;99.90
21544;DHT22;10933;50.754;11.508;2023-10-19T05:22:01;8.80;99.90
21544;DHT22;10933;50.754;11.508;2023-10-19T05:24:28;8.90;99.90
21544;DHT22;10933;50.754;11.508;2023-10-19T05:26:55;9.00;99.90
21544;DHT22;10933;50.754;11.508;2023-10-19T05:29:22;9.00;99.90
21544;DHT22;10933;50.754;11.508;2023-10-19T05:31:50;9.00;99.90
21544;DHT22;10933;50.754;11.508;2023-10-19T05:34:22;9.00;99.90
21544;DHT22;10933;50.754;11.508;2023-10-19T05:36:49;9.00;99.90
21544;DHT22;10933;50.754;11.508;2023-10-19T05:39:16;9.00;99.90
21544;DHT22;10933;50.754;11.508;2023-10-19T05:41:42;9.10;99.90
21544;DHT22;10933;50.754;11.508;2023-10-19T05:44:08;9.10;99.90
21544;DHT22;10933;50.754;11.508;2023-10-19T05:46:34;9.20;99.90
21544;DHT22;10933;50.754;11.508;2023-10-19T05:48:59;9.20;99.90
21544;DHT22;10933;50.754;11.508;2023-10-19T05:51:29;10.70;99.90
21544;DHT22;10933;50.754;11.508;2023-10-19T05:53:56;12.70;99.90
21544;DHT22;10933;50.754;11.508;2023-10-19T05:56:28;9.30;99.90
21544;DHT22;10933;50.754;11.508;2023-10-19T05:58:56;9.30;99.90
21544;DHT22;10933;50.754;11.508;2023-10-19T06:01:23;9.30;99.90
21544;DHT22;10933;50.754;11.508;2023-10-19T06:03:50;9.40;99.90
21544;DHT22;10933;50.754;11.508;2023-10-19T06:06:19;9.30;99.90
21544;DHT22;10933;50.754;11.508;2023-10-19T06:08:45;9.50;99.90
21544;DHT22;10933;50.754;11.508;2023-10-19T06:11:11;9.60;99.90
21544;DHT22;10933;50.754;11.508;2023-10-19T06:13:37;10.40;99.90
21544;DHT22;10933;50.754;11.508;2023-10-19T06:16:05;10.80;99.90
21544;DHT22;10933;50.754;11.508;2023-10-19T06:18:31;9.70;99.90
21544;DHT22;10933;50.754;11.508;2023-10-19T06:20:57;11.90;99.90
21544;DHT22;10933;50.754;11.508;2023-10-19T06:23:23;11.00;99.90
21544;DHT22;10933;50.754;11.508;2023-10-19T06:25:48;12.10;99.90
21544;DHT22;10933;50.754;11.508;2023-10-19T06:28:17;12.60;99.90
21544;DHT22;10933;50.754;11.508;2023-10-19T06:30:43;11.30;99.90
21544;DHT22;10933;50.754;11.508;2023-10-19T06:33:09;9.90;99.90
21544;DHT22;10933;50.754;11.508;2023-10-19T06:35:35;11.30;99.90
21544;DHT22;10933;50.754;11.508;2023-10-19T06:38:03;12.20;99.90
21544;DHT22;10933;50.754;11.508;2023-10-19T06:40:29;10.00;99.90
21544;DHT22;10933;50.754;11.508;2023-10-19T06:42:57;10.00;99.90
21544;DHT22;10933;50.754;11.508;2023-10-19T06:45:25;10.10;99.90
21544;DHT22;10933;50.754;11.508;2023-10-19T06:47:52;10.10;99.90
21544;DHT22;10933;50.754;11.508;2023-10-19T06:50:20;12.60;99.90
21544;DHT22;10933;50.754;11.508;2023-10-19T06:52:48;10.20;99.90
21544;DHT22;10933;50.754;11.508;2023-10-19T06:55:16;12.40;99.90
21544;DHT22;10933;50.754;11.508;2023-10-19T06:57:50;10.30;99.90
21544;DHT22;10933;50.754;11.508;2023-10-19T07:00:20;12.40;99.90
21544;DHT22;10933;50.754;11.508;2023-10-19T07:02:51;10.50;99.90
21544;DHT22;10933;50.754;11.508;2023-10-19T07:05:19;10.50;99.90
21544;DHT22;10933;50.754;11.508;2023-10-19T07:07:55;10.60;99.90
21544;DHT22;10933;50.754;11.508;2023-10-19T07:10:23;10.50;99.90
21544;DHT22;10933;50.754;11.508;2023-10-19T07:12:52;10.50;99.90
21544;DHT22;10933;50.754;11.508;2023-10-19T07:15:19;12.90;99.90
21544;DHT22;10933;50.754;11.508;2023-10-19T07:17:46;12.80;99.90
21544;DHT22;10933;50.754;11.508;2023-10-19T07:20:14;10.60;99.90
21544;DHT22;10933;50.754;11.508;2023-10-19T07:22:51;13.00;99.90
21544;DHT22;10933;50.754;11.508;2023-10-19T07:25:22;8.60;99.90
21544;DHT22;10933;50.754;11.508;2023-10-19T07:27:51;12.70;99.90
21544;DHT22;10933;50.754;11.508;2023-10-19T07:30:19;11.90;99.90
21544;DHT22;10933;50.754;11.508;2023-10-19T07:32:48;10.80;99.90
21544;DHT22;10933;50.754;11.508;2023-10-19T07:35:22;10.70;99.90
21544;DHT22;10933;50.754;11.508;2023-10-19T07:37:48;10.90;99.90
21544;DHT22;10933;50.754;11.508;2023-10-19T07:40:15;13.60;99.90
21544;DHT22;10933;50.754;11.508;2023-10-19T07:42:46;11.20;99.90
21544;DHT22;10933;50.754;11.508;2023-10-19T07:45:14;12.70;99.90
21544;DHT22;10933;50.754;11.508;2023-10-19T07:47:41;11.50;99.90
21544;DHT22;10933;50.754;11.508;2023-10-19T07:50:08;12.70;99.90
21544;DHT22;10933;50.754;11.508;2023-10-19T07:52:47;11.70;99.90
21544;DHT22;10933;50.754;11.508;2023-10-19T07:55:15;12.00;99.90
21544;DHT22;10933;50.754;11.508;2023-10-19T07:57:42;11.90;99.90
21544;DHT22;10933;50.754;11.508;2023-10-19T08:00:10;13.60;99.90
21544;DHT22;10933;50.754;11.508;2023-10-19T08:02:39;11.80;99.90
21544;DHT22;10933;50.754;11.508;2023-10-19T08:05:14;11.70;99.90
21544;DHT22;10933;50.754;11.508;2023-10-19T08:07:41;13.10;99.90
21544;DHT22;10933;50.754;11.508;2023-10-19T08:10:11;12.60;99.90
21544;DHT22;10933;50.754;11.508;2023-10-19T08:12:39;11.80;99.90
21544;DHT22;10933;50.754;11.508;2023-10-19T08:15:12;12.30;99.90
21544;DHT22;10933;50.754;11.508;2023-10-19T08:17:40;11.80;99.90
21544;DHT22;10933;50.754;11.508;2023-10-19T08:20:14;11.70;99.90
21544;DHT22;10933;50.754;11.508;2023-10-19T08:22:53;13.20;99.90
21544;DHT22;10933;50.754;11.508;2023-10-19T08:25:22;14.50;99.90
21544;DHT22;10933;50.754;11.508;2023-10-19T08:27:49;14.60;99.90
21544;DHT22;10933;50.754;11.508;2023-10-19T08:30:19;13.40;99.90
21544;DHT22;10933;50.754;11.508;2023-10-19T08:32:47;12.20;99.90
21544;DHT22;10933;50.754;11.508;2023-10-19T08:35:17;14.80;99.90
21544;DHT22;10933;50.754;11.508;2023-10-19T08:37:46;14.40;99.90
21544;DHT22;10933;50.754;11.508;2023-10-19T08:40:13;14.30;99.90
21544;DHT22;10933;50.754;11.508;2023-10-19T08:42:46;15.40;99.90
21544;DHT22;10933;50.754;11.508;2023-10-19T08:45:14;13.50;99.90
21544;DHT22;10933;50.754;11.508;2023-10-19T08:47:55;15.90;99.90
21544;DHT22;10933;50.754;11.508;2023-10-19T08:50:28;14.20;99.90
21544;DHT22;10933;50.754;11.508;2023-10-19T08:53:00;16.40;99.90
21544;DHT22;10933;50.754;11.508;2023-10-19T08:55:29;16.30;99.90
21544;DHT22;10933;50.754;11.508;2023-10-19T08:57:56;16.90;99.90
21544;DHT22;10933;50.754;11.508;2023-10-19T09:00:24;18.20;99.90
21544;DHT22;10933;50.754;11.508;2023-10-19T09:02:51;18.80;99.90
21544;DHT22;10933;50.754;11.508;2023-10-19T09:05:18;18.40;99.90
21544;DHT22;10933;50.754;11.508;2023-10-19T09:07:55;19.30;99.90
21544;DHT22;10933;50.754;11.508;2023-10-19T09:10:25;19.80;99.90
21544;DHT22;10933;50.754;11.508;2023-10-19T09:13:03;18.10;99.90
21544;DHT22;10933;50.754;11.508;2023-10-19T09:15:34;18.60;99.90
21544;DHT22;10933;50.754;11.508;2023-10-19T09:18:24;18.90;99.90
21544;DHT22;10933;50.754;11.508;2023-10-19T09:20:53;19.00;99.90
21544;DHT22;10933;50.754;11.508;2023-10-19T09:23:24;18.20;99.90
21544;DHT22;10933;50.754;11.508;2023-10-19T09:25:57;17.90;99.90
21544;DHT22;10933;50.754;11.508;2023-10-19T09:28:35;15.60;99.90
21544;DHT22;10933;50.754;11.508;2023-10-19T09:31:02;16.30;99.90
21544;DHT22;10933;50.754;11.508;2023-10-19T09:33:28;15.80;99.90
21544;DHT22;10933;50.754;11.508;2023-10-19T09:36:00;16.70;99.90
21544;DHT22;10933;50.754;11.508;2023-10-19T09:38:30;15.10;99.90
21544;DHT22;10933;50.754;11.508;2023-10-19T09:40:57;14.80;99.90
21544;DHT22;10933;50.754;11.508;2023-10-19T09:43:41;14.80;99.90
21544;DHT22;10933;50.754;11.508;2023-10-19T09:46:10;15.10;99.90
21544;DHT22;10933;50.754;11.508;2023-10-19T09:48:42;15.70;99.90
21544;DHT22;10933;50.754;11.508;2023-10-19T09:51:11;17.00;99.90
21544;DHT22;10933;50.754;11.508;2023-10-19T09:53:39;16.10;99.90
21544;DHT22;10933;50.754;11.508;2023-10-19T09:56:08;16.50;99.90
21544;DHT22;10933;50.754;11.508;2023-10-19T09:58:45;16.50;99.90
21544;DHT22;10933;50.754;11.508;2023-10-19T10:01:14;16.70;99.90
21544;DHT22;10933;50.754;11.508;2023-10-19T10:03:51;17.00;99.90
21544;DHT22;10933;50.754;11.508;2023-10-19T10:09:19;15.80;99.90
21544;DHT22;10933;50.754;11.508;2023-10-19T10:11:52;15.50;99.90
21544;DHT22;10933;50.754;11.508;2023-10-19T10:14:25;15.60;99.90
21544;DHT22;10933;50.754;11.508;2023-10-19T10:17:01;15.60;99.90
21544;DHT22;10933;50.754;11.508;2023-10-19T10:19:27;15.10;99.90
21544;DHT22;10933;50.754;11.508;2023-10-19T10:22:10;16.30;99.90
21544;DHT22;10933;50.754;11.508;2023-10-19T10:24:43;16.30;99.90
21544;DHT22;10933;50.754;11.508;2023-10-19T10:27:10;18.10;99.90
21544;DHT22;10933;50.754;11.508;2023-10-19T10:29:57;18.60;99.90
21544;DHT22;10933;50.754;11.508;2023-10-19T10:32:43;18.80;99.90
21544;DHT22;10933;50.754;11.508;2023-10-19T10:35:30;17.80;99.90
21544;DHT22;10933;50.754;11.508;2023-10-19T10:38:03;19.00;99.90
21544;DHT22;10933;50.754;11.508;2023-10-19T10:40:41;20.50;99.90
21544;DHT22;10933;50.754;11.508;2023-10-19T10:43:08;20.10;99.90
21544;DHT22;10933;50.754;11.508;2023-10-19T10:45:34;19.80;99.90
21544;DHT22;10933;50.754;11.508;2023-10-19T10:47:59;19.50;99.90
21544;DHT22;10933;50.754;11.508;2023-10-19T10:50:26;19.00;99.90
21544;DHT22;10933;50.754;11.508;2023-10-19T10:52:53;18.40;99.90
21544;DHT22;10933;50.754;11.508;2023-10-19T10:55:23;19.90;99.90
21544;DHT22;10933;50.754;11.508;2023-10-19T10:57:52;18.90;99.90
21544;DHT22;10933;50.754;11.508;2023-10-19T11:00:19;19.40;99.90
21544;DHT22;10933;50.754;11.508;2023-10-19T11:02:47;21.10;99.90
21544;DHT22;10933;50.754;11.508;2023-10-19T11:05:24;21.90;99.90
21544;DHT22;10933;50.754;11.508;2023-10-19T11:08:14;21.30;99.90
21544;DHT22;10933;50.754;11.508;2023-10-19T11:10:47;18.50;99.90
21544;DHT22;10933;50.754;11.508;2023-10-19T11:13:22;19.30;99.90
21544;DHT22;10933;50.754;11.508;2023-10-19T11:15:53;19.20;99.90
21544;DHT22;10933;50.754;11.508;2023-10-19T11:21:09;19.10;99.90
21544;DHT22;10933;50.754;11.508;2023-10-19T11:23:43;19.40;99.90
21544;DHT22;10933;50.754;11.508;2023-10-19T11:26:12;18.20;99.90
21544;DHT22;10933;50.754;11.508;2023-10-19T11:28:40;18.20;99.90
21544;DHT22;10933;50.754;11.508;2023-10-19T11:31:19;18.80;99.90
21544;DHT22;10933;50.754;11.508;2023-10-19T11:33:51;19.70;99.90
21544;DHT22;10933;50.754;11.508;2023-10-19T11:36:19;21.10;99.90
21544;DHT22;10933;50.754;11.508;2023-10-19T11:38:47;21.10;99.90
21544;DHT22;10933;50.754;11.508;2023-10-19T11:41:15;21.20;99.90
21544;DHT22;10933;50.754;11.508;2023-10-19T11:43:43;21.40;99.90
21544;DHT22;10933;50.754;11.508;2023-10-19T11:46:11;20.70;99.90
21544;DHT22;10933;50.754;11.508;2023-10-19T11:48:37;20.40;99.90
21544;DHT22;10933;50.754;11.508;2023-10-19T11:51:05;20.50;99.90
21544;DHT22;10933;50.754;11.508;2023-10-19T11:53:33;21.00;99.90
21544;DHT22;10933;50.754;11.508;2023-10-19T11:56:07;20.70;99.90
21544;DHT22;10933;50.754;11.508;2023-10-19T11:58:35;19.90;99.90
21544;DHT22;10933;50.754;11.508;2023-10-19T12:01:03;20.00;99.90
21544;DHT22;10933;50.754;11.508;2023-10-19T12:03:39;20.10;99.90
21544;DHT22;10933;50.754;11.508;2023-10-19T12:06:06;20.10;99.90
21544;DHT22;10933;50.754;11.508;2023-10-19T12:08:37;20.50;99.90
21544;DHT22;10933;50.754;11.508;2023-10-19T12:11:04;20.60;99.90
21544;DHT22;10933;50.754;11.508;2023-10-19T12:13:41;20.80;99.90
21544;DHT22;10933;50.754;11.508;2023-10-19T12:16:11;20.80;99.90
21544;DHT22;10933;50.754;11.508;2023-10-19T12:18:39;20.10;99.90
21544;DHT22;10933;50.754;11.508;2023-10-19T12:21:05;19.40;99.90
21544;DHT22;10933;50.754;11.508;2023-10-19T12:23:33;20.20;99.90
21544;DHT22;10933;50.754;11.508;2023-10-19T12:25:59;20.60;99.90
21544;DHT22;10933;50.754;11.508;2023-10-19T12:28:33;19.80;99.90
21544;DHT22;10933;50.754;11.508;2023-10-19T12:30:59;18.50;99.90
21544;DHT22;10933;50.754;11.508;2023-10-19T12:33:26;17.80;99.90
21544;DHT22;10933;50.754;11.508;2023-10-19T12:35:52;17.70;99.90
21544;DHT22;10933;50.754;11.508;2023-10-19T12:38:19;17.80;99.90
21544;DHT22;10933;50.754;11.508;2023-10-19T12:40:49;17.70;99.90
21544;DHT22;10933;50.754;11.508;2023-10-19T12:43:20;17.60;99.90
21544;DHT22;10933;50.754;11.508;2023-10-19T12:45:48;17.50;99.90
21544;DHT22;10933;50.754;11.508;2023-10-19T12:48:19;17.30;99.90
21544;DHT22;10933;50.754;11.508;2023-10-19T12:50:46;20.00;99.90
21544;DHT22;10933;50.754;11.508;2023-10-19T12:53:13;17.40;99.90
21544;DHT22;10933;50.754;11.508;2023-10-19T12:55:39;17.40;99.90
21544;DHT22;10933;50.754;11.508;2023-10-19T12:58:08;17.40;99.90
21544;DHT22;10933;50.754;11.508;2023-10-19T13:00:35;17.60;99.90
21544;DHT22;10933;50.754;11.508;2023-10-19T13:03:05;17.30;99.90
21544;DHT22;10933;50.754;11.508;2023-10-19T13:05:35;17.50;99.90
21544;DHT22;10933;50.754;11.508;2023-10-19T13:08:06;17.30;99.90
21544;DHT22;10933;50.754;11.508;2023-10-19T13:10:35;17.00;99.90
21544;DHT22;10933;50.754;11.508;2023-10-19T13:13:06;17.10;99.90
21544;DHT22;10933;50.754;11.508;2023-10-19T13:15:36;17.70;99.90
21544;DHT22;10933;50.754;11.508;2023-10-19T13:18:03;17.20;99.90
21544;DHT22;10933;50.754;11.508;2023-10-19T13:20:32;17.10;99.90
21544;DHT22;10933;50.754;11.508;2023-10-19T13:23:02;17.10;99.90
21544;DHT22;10933;50.754;11.508;2023-10-19T13:25:33;17.10;99.90
21544;DHT22;10933;50.754;11.508;2023-10-19T13:28:11;17.30;99.90
21544;DHT22;10933;50.754;11.508;2023-10-19T13:30:45;17.10;99.90
21544;DHT22;10933;50.754;11.508;2023-10-19T13:33:17;17.30;99.90
21544;DHT22;10933;50.754;11.508;2023-10-19T13:35:44;17.30;99.90
21544;DHT22;10933;50.754;11.508;2023-10-19T13:38:11;16.90;99.90
21544;DHT22;10933;50.754;11.508;2023-10-19T13:40:40;17.10;99.90
21544;DHT22;10933;50.754;11.508;2023-10-19T13:43:08;17.10;99.90
21544;DHT22;10933;50.754;11.508;2023-10-19T13:45:39;17.20;99.90
21544;DHT22;10933;50.754;11.508;2023-10-19T13:48:08;17.50;99.90
21544;DHT22;10933;50.754;11.508;2023-10-19T13:50:46;17.50;99.90
21544;DHT22;10933;50.754;11.508;2023-10-19T13:53:16;17.60;99.90
21544;DHT22;10933;50.754;11.508;2023-10-19T13:55:43;17.60;99.90
21544;DHT22;10933;50.754;11.508;2023-10-19T13:58:10;17.50;99.90
21544;DHT22;10933;50.754;11.508;2023-10-19T14:00:36;17.50;99.90
21544;DHT22;10933;50.754;11.508;2023-10-19T14:03:05;17.40;99.90
21544;DHT22;10933;50.754;11.508;2023-10-19T14:05:39;17.50;99.90
21544;DHT22;10933;50.754;11.508;2023-10-19T14:08:09;17.10;99.90
21544;DHT22;10933;50.754;11.508;2023-10-19T14:10:35;17.00;99.90
21544;DHT22;10933;50.754;11.508;2023-10-19T14:13:02;16.60;99.90
21544;DHT22;10933;50.754;11.508;2023-10-19T14:15:28;16.30;99.90
21544;DHT22;10933;50.754;11.508;2023-10-19T14:17:56;16.10;99.90
21544;DHT22;10933;50.754;11.508;2023-10-19T14:20:25;15.90;99.90
21544;DHT22;10933;50.754;11.508;2023-10-19T14:22:53;16.00;99.90
21544;DHT22;10933;50.754;11.508;2023-10-19T14:25:19;16.10;99.90
21544;DHT22;10933;50.754;11.508;2023-10-19T14:27:49;16.00;99.90
21544;DHT22;10933;50.754;11.508;2023-10-19T14:30:22;15.80;99.90
21544;DHT22;10933;50.754;11.508;2023-10-19T14:32:49;15.70;99.90
21544;DHT22;10933;50.754;11.508;2023-10-19T14:35:18;15.70;99.90
21544;DHT22;10933;50.754;11.508;2023-10-19T14:37:46;18.20;99.90
21544;DHT22;10933;50.754;11.508;2023-10-19T14:40:19;15.70;99.90
21544;DHT22;10933;50.754;11.508;2023-10-19T14:42:47;15.80;99.90
21544;DHT22;10933;50.754;11.508;2023-10-19T14:45:17;16.40;99.90
21544;DHT22;10933;50.754;11.508;2023-10-19T14:47:47;15.50;99.90
21544;DHT22;10933;50.754;11.508;2023-10-19T14:50:15;16.70;99.90
21544;DHT22;10933;50.754;11.508;2023-10-19T14:52:44;16.20;99.90
21544;DHT22;10933;50.754;11.508;2023-10-19T14:55:13;16.20;99.90
21544;DHT22;10933;50.754;11.508;2023-10-19T14:57:45;15.60;99.90
21544;DHT22;10933;50.754;11.508;2023-10-19T15:00:16;15.70;99.90
21544;DHT22;10933;50.754;11.508;2023-10-19T15:03:01;15.50;99.90
21544;DHT22;10933;50.754;11.508;2023-10-19T15:05:32;16.50;99.90
21544;DHT22;10933;50.754;11.508;2023-10-19T15:08:05;15.50;99.90
21544;DHT22;10933;50.754;11.508;2023-10-19T15:10:33;15.00;99.90
21544;DHT22;10933;50.754;11.508;2023-10-19T15:12:59;15.10;99.90
21544;DHT22;10933;50.754;11.508;2023-10-19T15:15:26;16.30;99.90
21544;DHT22;10933;50.754;11.508;2023-10-19T15:17:53;15.00;99.90
21544;DHT22;10933;50.754;11.508;2023-10-19T15:20:23;15.70;99.90
21544;DHT22;10933;50.754;11.508;2023-10-19T15:22:50;14.90;99.90
21544;DHT22;10933;50.754;11.508;2023-10-19T15:25:17;14.80;99.90
21544;DHT22;10933;50.754;11.508;2023-10-19T15:27:47;17.00;99.90
21544;DHT22;10933;50.754;11.508;2023-10-19T15:30:17;15.80;99.90
21544;DHT22;10933;50.754;11.508;2023-10-19T15:32:49;14.70;99.90
21544;DHT22;10933;50.754;11.508;2023-10-19T15:35:17;14.70;99.90
21544;DHT22;10933;50.754;11.508;2023-10-19T15:37:52;14.70;99.90
21544;DHT22;10933;50.754;11.508;2023-10-19T15:40:22;15.10;99.90
21544;DHT22;10933;50.754;11.508;2023-10-19T15:42:50;14.70;99.90
21544;DHT22;10933;50.754;11.508;2023-10-19T15:45:18;15.10;99.90
21544;DHT22;10933;50.754;11.508;2023-10-19T15:47:45;14.70;99.90
21544;DHT22;10933;50.754;11.508;2023-10-19T15:50:11;15.40;99.90
21544;DHT22;10933;50.754;11.508;2023-10-19T15:52:39;15.40;99.90